Terminal Aerodrome Forecast
Issued by NWS Charleston, WV

Current Version | Previous Version | Text Only | Print | Product List | Glossary Off
Versions: 1 2 3 4 5 6 7 8 9 10 11 12 13 14 15 16 17 18 19 20 21

000
FTUS41 KRLX 281148
TAFBKW
TAF
KBKW 281148Z 2812/2912 17006KT 4SM BR VCSH OVC070
     FM281300 19006KT 5SM -SHRA OVC030
     FM281900 25007KT P6SM VCSH BKN035
     FM290300 VRB03KT 4SM BR SCT010=

USA.gov is the U.S. government's official web portal to all federal, state and local government web resources and services.